sensor_id;sensor_type;location;lat;lon;timestamp;temperature;humidity
46976;DHT22;32724;51.094;6.996;2022-07-23T00:01:26;16.30;99.90
46976;DHT22;32724;51.094;6.996;2022-07-23T00:03:52;16.30;99.90
46976;DHT22;32724;51.094;6.996;2022-07-23T00:06:20;16.30;99.90
46976;DHT22;32724;51.094;6.996;2022-07-23T00:08:45;16.30;99.90
46976;DHT22;32724;51.094;6.996;2022-07-23T00:11:11;16.30;99.90
46976;DHT22;32724;51.094;6.996;2022-07-23T00:13:36;16.20;99.90
46976;DHT22;32724;51.094;6.996;2022-07-23T00:16:02;16.20;99.90
46976;DHT22;32724;51.094;6.996;2022-07-23T00:18:28;16.30;99.90
46976;DHT22;32724;51.094;6.996;2022-07-23T00:20:53;16.30;99.90
46976;DHT22;32724;51.094;6.996;2022-07-23T00:23:19;16.30;99.90
46976;DHT22;32724;51.094;6.996;2022-07-23T00:25:44;16.20;99.90
46976;DHT22;32724;51.094;6.996;2022-07-23T00:28:13;16.30;99.90
46976;DHT22;32724;51.094;6.996;2022-07-23T00:30:38;16.30;99.90
46976;DHT22;32724;51.094;6.996;2022-07-23T00:33:05;16.40;99.90
46976;DHT22;32724;51.094;6.996;2022-07-23T00:35:31;16.40;99.90
46976;DHT22;32724;51.094;6.996;2022-07-23T00:37:58;16.40;99.90
46976;DHT22;32724;51.094;6.996;2022-07-23T00:40:24;16.40;99.90
46976;DHT22;32724;51.094;6.996;2022-07-23T00:45:17;16.40;99.90
46976;DHT22;32724;51.094;6.996;2022-07-23T00:47:43;16.40;99.90
46976;DHT22;32724;51.094;6.996;2022-07-23T00:50:09;16.30;99.90
46976;DHT22;32724;51.094;6.996;2022-07-23T00:52:35;16.30;99.90
46976;DHT22;32724;51.094;6.996;2022-07-23T00:55:01;16.30;99.90
46976;DHT22;32724;51.094;6.996;2022-07-23T00:57:27;16.30;99.90
46976;DHT22;32724;51.094;6.996;2022-07-23T00:59:53;16.30;99.90
46976;DHT22;32724;51.094;6.996;2022-07-23T01:02:18;16.30;99.90
46976;DHT22;32724;51.094;6.996;2022-07-23T01:04:43;16.20;99.90
46976;DHT22;32724;51.094;6.996;2022-07-23T01:07:09;16.20;99.90
46976;DHT22;32724;51.094;6.996;2022-07-23T01:09:35;16.40;99.90
46976;DHT22;32724;51.094;6.996;2022-07-23T01:12:01;16.40;99.90
46976;DHT22;32724;51.094;6.996;2022-07-23T01:14:27;16.50;99.90
46976;DHT22;32724;51.094;6.996;2022-07-23T01:16:53;16.50;99.90
46976;DHT22;32724;51.094;6.996;2022-07-23T01:19:19;16.60;99.90
46976;DHT22;32724;51.094;6.996;2022-07-23T01:21:46;16.60;99.90
46976;DHT22;32724;51.094;6.996;2022-07-23T01:24:11;16.60;99.90
46976;DHT22;32724;51.094;6.996;2022-07-23T01:26:37;16.60;99.90
46976;DHT22;32724;51.094;6.996;2022-07-23T01:29:03;16.60;99.90
46976;DHT22;32724;51.094;6.996;2022-07-23T01:31:29;16.60;99.90
46976;DHT22;32724;51.094;6.996;2022-07-23T01:33:55;16.60;99.90
46976;DHT22;32724;51.094;6.996;2022-07-23T01:36:20;16.60;99.90
46976;DHT22;32724;51.094;6.996;2022-07-23T01:38:46;16.60;99.90
46976;DHT22;32724;51.094;6.996;2022-07-23T01:41:11;16.60;99.90
46976;DHT22;32724;51.094;6.996;2022-07-23T01:43:36;16.60;99.90
46976;DHT22;32724;51.094;6.996;2022-07-23T01:46:02;16.50;99.90
46976;DHT22;32724;51.094;6.996;2022-07-23T01:48:27;16.30;99.90
46976;DHT22;32724;51.094;6.996;2022-07-23T01:50:53;16.30;99.90
46976;DHT22;32724;51.094;6.996;2022-07-23T01:53:18;16.10;99.90
46976;DHT22;32724;51.094;6.996;2022-07-23T01:55:44;16.10;99.90
46976;DHT22;32724;51.094;6.996;2022-07-23T01:58:09;16.20;99.90
46976;DHT22;32724;51.094;6.996;2022-07-23T02:00:35;16.30;99.90
46976;DHT22;32724;51.094;6.996;2022-07-23T02:03:01;16.20;99.90
46976;DHT22;32724;51.094;6.996;2022-07-23T02:05:26;16.10;99.90
46976;DHT22;32724;51.094;6.996;2022-07-23T02:07:54;16.00;99.90
46976;DHT22;32724;51.094;6.996;2022-07-23T02:10:21;16.00;99.90
46976;DHT22;32724;51.094;6.996;2022-07-23T02:12:46;15.90;99.90
46976;DHT22;32724;51.094;6.996;2022-07-23T02:15:12;15.90;99.90
46976;DHT22;32724;51.094;6.996;2022-07-23T02:17:37;15.80;99.90
46976;DHT22;32724;51.094;6.996;2022-07-23T02:20:03;15.80;99.90
46976;DHT22;32724;51.094;6.996;2022-07-23T02:22:29;15.80;99.90
46976;DHT22;32724;51.094;6.996;2022-07-23T02:24:54;15.80;99.90
46976;DHT22;32724;51.094;6.996;2022-07-23T02:27:20;15.80;99.90
46976;DHT22;32724;51.094;6.996;2022-07-23T02:29:46;15.80;99.90
46976;DHT22;32724;51.094;6.996;2022-07-23T02:32:12;15.70;99.90
46976;DHT22;32724;51.094;6.996;2022-07-23T02:34:37;15.70;99.90
46976;DHT22;32724;51.094;6.996;2022-07-23T02:37:02;15.60;99.90
46976;DHT22;32724;51.094;6.996;2022-07-23T02:39:28;15.50;99.90
46976;DHT22;32724;51.094;6.996;2022-07-23T02:41:53;15.50;99.90
46976;DHT22;32724;51.094;6.996;2022-07-23T02:44:19;15.50;99.90
46976;DHT22;32724;51.094;6.996;2022-07-23T02:46:44;15.50;99.90
46976;DHT22;32724;51.094;6.996;2022-07-23T02:49:10;15.50;99.90
46976;DHT22;32724;51.094;6.996;2022-07-23T02:51:35;15.50;99.90
46976;DHT22;32724;51.094;6.996;2022-07-23T02:54:01;15.50;99.90
46976;DHT22;32724;51.094;6.996;2022-07-23T02:56:26;15.40;99.90
46976;DHT22;32724;51.094;6.996;2022-07-23T02:58:52;15.40;99.90
46976;DHT22;32724;51.094;6.996;2022-07-23T03:01:17;15.30;99.90
46976;DHT22;32724;51.094;6.996;2022-07-23T03:03:43;15.30;99.90
46976;DHT22;32724;51.094;6.996;2022-07-23T03:06:08;15.20;99.90
46976;DHT22;32724;51.094;6.996;2022-07-23T03:08:34;15.10;99.90
46976;DHT22;32724;51.094;6.996;2022-07-23T03:10:59;15.00;99.90
46976;DHT22;32724;51.094;6.996;2022-07-23T03:13:25;15.00;99.90
46976;DHT22;32724;51.094;6.996;2022-07-23T03:15:50;15.00;99.90
46976;DHT22;32724;51.094;6.996;2022-07-23T03:18:16;14.90;99.90
46976;DHT22;32724;51.094;6.996;2022-07-23T03:20:42;14.90;99.90
46976;DHT22;32724;51.094;6.996;2022-07-23T03:23:07;14.90;99.90
46976;DHT22;32724;51.094;6.996;2022-07-23T03:25:33;14.90;99.90
46976;DHT22;32724;51.094;6.996;2022-07-23T03:27:58;14.80;99.90
46976;DHT22;32724;51.094;6.996;2022-07-23T03:30:24;14.70;99.90
46976;DHT22;32724;51.094;6.996;2022-07-23T03:32:49;14.70;99.90
46976;DHT22;32724;51.094;6.996;2022-07-23T03:35:14;14.60;99.90
46976;DHT22;32724;51.094;6.996;2022-07-23T03:37:40;14.60;99.90
46976;DHT22;32724;51.094;6.996;2022-07-23T03:40:06;14.50;99.90
46976;DHT22;32724;51.094;6.996;2022-07-23T03:42:31;14.50;99.90
46976;DHT22;32724;51.094;6.996;2022-07-23T03:44:57;14.50;99.90
46976;DHT22;32724;51.094;6.996;2022-07-23T03:47:22;14.40;99.90
46976;DHT22;32724;51.094;6.996;2022-07-23T03:49:48;14.40;99.90
46976;DHT22;32724;51.094;6.996;2022-07-23T03:52:13;14.40;99.90
46976;DHT22;32724;51.094;6.996;2022-07-23T03:54:39;14.40;99.90
46976;DHT22;32724;51.094;6.996;2022-07-23T03:57:04;14.40;99.90
46976;DHT22;32724;51.094;6.996;2022-07-23T03:59:30;14.40;99.90
46976;DHT22;32724;51.094;6.996;2022-07-23T04:01:55;14.50;99.90
46976;DHT22;32724;51.094;6.996;2022-07-23T04:04:21;14.60;99.90
46976;DHT22;32724;51.094;6.996;2022-07-23T04:06:46;14.50;99.90
46976;DHT22;32724;51.094;6.996;2022-07-23T04:09:12;14.60;99.90
46976;DHT22;32724;51.094;6.996;2022-07-23T04:11:37;14.70;99.90
46976;DHT22;32724;51.094;6.996;2022-07-23T04:14:03;14.70;99.90
46976;DHT22;32724;51.094;6.996;2022-07-23T04:16:28;14.70;99.90
46976;DHT22;32724;51.094;6.996;2022-07-23T04:18:56;14.80;99.90
46976;DHT22;32724;51.094;6.996;2022-07-23T04:21:22;14.90;99.90
46976;DHT22;32724;51.094;6.996;2022-07-23T04:23:48;14.90;99.90
46976;DHT22;32724;51.094;6.996;2022-07-23T04:26:13;14.90;99.90
46976;DHT22;32724;51.094;6.996;2022-07-23T04:28:39;14.90;99.90
46976;DHT22;32724;51.094;6.996;2022-07-23T04:31:04;15.00;99.90
46976;DHT22;32724;51.094;6.996;2022-07-23T04:33:30;15.00;99.90
46976;DHT22;32724;51.094;6.996;2022-07-23T04:35:55;15.00;99.90
46976;DHT22;32724;51.094;6.996;2022-07-23T04:38:21;15.10;99.90
46976;DHT22;32724;51.094;6.996;2022-07-23T04:40:46;15.10;99.90
46976;DHT22;32724;51.094;6.996;2022-07-23T04:43:12;15.10;99.90
46976;DHT22;32724;51.094;6.996;2022-07-23T04:45:37;15.10;99.90
46976;DHT22;32724;51.094;6.996;2022-07-23T04:48:03;15.20;99.90
46976;DHT22;32724;51.094;6.996;2022-07-23T04:50:28;15.20;99.90
46976;DHT22;32724;51.094;6.996;2022-07-23T04:52:54;15.20;99.90
46976;DHT22;32724;51.094;6.996;2022-07-23T04:55:19;15.30;99.90
46976;DHT22;32724;51.094;6.996;2022-07-23T04:57:45;15.30;99.90
46976;DHT22;32724;51.094;6.996;2022-07-23T05:00:10;15.50;99.90
46976;DHT22;32724;51.094;6.996;2022-07-23T05:02:36;15.60;99.90
46976;DHT22;32724;51.094;6.996;2022-07-23T05:05:01;15.60;99.90
46976;DHT22;32724;51.094;6.996;2022-07-23T05:07:27;15.70;99.90
46976;DHT22;32724;51.094;6.996;2022-07-23T05:09:52;15.80;99.90
46976;DHT22;32724;51.094;6.996;2022-07-23T05:12:18;15.90;99.90
46976;DHT22;32724;51.094;6.996;2022-07-23T05:14:43;15.80;99.90
46976;DHT22;32724;51.094;6.996;2022-07-23T05:17:09;15.90;99.90
46976;DHT22;32724;51.094;6.996;2022-07-23T05:19:34;15.90;99.90
46976;DHT22;32724;51.094;6.996;2022-07-23T05:22:00;16.10;99.90
46976;DHT22;32724;51.094;6.996;2022-07-23T05:24:26;16.70;99.90
46976;DHT22;32724;51.094;6.996;2022-07-23T05:26:51;17.70;99.90
46976;DHT22;32724;51.094;6.996;2022-07-23T05:29:17;18.40;99.90
46976;DHT22;32724;51.094;6.996;2022-07-23T05:31:42;19.10;99.90
46976;DHT22;32724;51.094;6.996;2022-07-23T05:34:08;19.70;99.90
46976;DHT22;32724;51.094;6.996;2022-07-23T05:36:33;20.30;99.90
46976;DHT22;32724;51.094;6.996;2022-07-23T05:38:59;20.80;99.90
46976;DHT22;32724;51.094;6.996;2022-07-23T05:41:24;21.50;99.90
46976;DHT22;32724;51.094;6.996;2022-07-23T05:43:50;21.90;99.90
46976;DHT22;32724;51.094;6.996;2022-07-23T05:46:15;22.40;99.90
46976;DHT22;32724;51.094;6.996;2022-07-23T05:48:41;22.60;99.90
46976;DHT22;32724;51.094;6.996;2022-07-23T05:51:07;22.40;99.90
46976;DHT22;32724;51.094;6.996;2022-07-23T05:53:33;22.20;99.90
46976;DHT22;32724;51.094;6.996;2022-07-23T05:55:59;21.80;99.90
46976;DHT22;32724;51.094;6.996;2022-07-23T05:58:24;21.50;99.90
46976;DHT22;32724;51.094;6.996;2022-07-23T06:00:50;21.50;99.90
46976;DHT22;32724;51.094;6.996;2022-07-23T06:03:15;21.40;99.90
46976;DHT22;32724;51.094;6.996;2022-07-23T06:05:41;21.30;99.90
46976;DHT22;32724;51.094;6.996;2022-07-23T06:08:06;21.30;99.90
46976;DHT22;32724;51.094;6.996;2022-07-23T06:10:32;21.50;99.90
46976;DHT22;32724;51.094;6.996;2022-07-23T06:12:57;21.50;99.90
46976;DHT22;32724;51.094;6.996;2022-07-23T06:15:23;21.90;99.90
46976;DHT22;32724;51.094;6.996;2022-07-23T06:17:48;22.40;99.90
46976;DHT22;32724;51.094;6.996;2022-07-23T06:20:14;23.30;99.90
46976;DHT22;32724;51.094;6.996;2022-07-23T06:22:40;24.00;99.90
46976;DHT22;32724;51.094;6.996;2022-07-23T06:25:05;24.70;99.90
46976;DHT22;32724;51.094;6.996;2022-07-23T06:27:31;24.80;99.90
46976;DHT22;32724;51.094;6.996;2022-07-23T06:29:57;24.80;99.90
46976;DHT22;32724;51.094;6.996;2022-07-23T06:32:22;24.80;99.90
46976;DHT22;32724;51.094;6.996;2022-07-23T06:34:48;25.30;99.90
46976;DHT22;32724;51.094;6.996;2022-07-23T06:37:13;25.80;99.90
46976;DHT22;32724;51.094;6.996;2022-07-23T06:39:38;25.80;99.90
46976;DHT22;32724;51.094;6.996;2022-07-23T06:42:04;26.20;99.90
46976;DHT22;32724;51.094;6.996;2022-07-23T06:44:30;26.00;99.90
46976;DHT22;32724;51.094;6.996;2022-07-23T06:46:55;25.80;99.90
46976;DHT22;32724;51.094;6.996;2022-07-23T06:49:21;25.30;99.90
46976;DHT22;32724;51.094;6.996;2022-07-23T06:51:46;25.60;99.90
46976;DHT22;32724;51.094;6.996;2022-07-23T06:54:11;25.60;99.90
46976;DHT22;32724;51.094;6.996;2022-07-23T06:56:37;25.40;99.90
46976;DHT22;32724;51.094;6.996;2022-07-23T06:59:02;25.00;99.90
46976;DHT22;32724;51.094;6.996;2022-07-23T07:01:28;24.20;99.90
46976;DHT22;32724;51.094;6.996;2022-07-23T07:03:54;23.50;99.90
46976;DHT22;32724;51.094;6.996;2022-07-23T07:06:19;23.20;99.90
46976;DHT22;32724;51.094;6.996;2022-07-23T07:08:45;23.00;99.90
46976;DHT22;32724;51.094;6.996;2022-07-23T07:11:10;22.60;99.90
46976;DHT22;32724;51.094;6.996;2022-07-23T07:13:36;22.20;99.90
46976;DHT22;32724;51.094;6.996;2022-07-23T07:16:02;22.10;99.90
46976;DHT22;32724;51.094;6.996;2022-07-23T07:18:28;22.20;99.90
46976;DHT22;32724;51.094;6.996;2022-07-23T07:20:53;22.20;99.90
46976;DHT22;32724;51.094;6.996;2022-07-23T07:23:19;22.30;99.90
46976;DHT22;32724;51.094;6.996;2022-07-23T07:25:46;22.40;99.90
46976;DHT22;32724;51.094;6.996;2022-07-23T07:28:11;22.30;99.90
46976;DHT22;32724;51.094;6.996;2022-07-23T07:30:37;22.20;99.90
46976;DHT22;32724;51.094;6.996;2022-07-23T07:33:02;22.20;99.90
46976;DHT22;32724;51.094;6.996;2022-07-23T07:35:28;22.50;99.90
46976;DHT22;32724;51.094;6.996;2022-07-23T07:37:53;22.40;99.90
46976;DHT22;32724;51.094;6.996;2022-07-23T07:40:19;22.10;99.90
46976;DHT22;32724;51.094;6.996;2022-07-23T07:42:49;22.10;99.90
46976;DHT22;32724;51.094;6.996;2022-07-23T07:45:15;22.20;99.90
46976;DHT22;32724;51.094;6.996;2022-07-23T07:47:41;21.90;99.90
46976;DHT22;32724;51.094;6.996;2022-07-23T07:50:06;21.20;99.90
46976;DHT22;32724;51.094;6.996;2022-07-23T07:52:33;21.00;99.90
46976;DHT22;32724;51.094;6.996;2022-07-23T07:54:59;21.00;99.90
46976;DHT22;32724;51.094;6.996;2022-07-23T07:57:24;20.90;99.90
46976;DHT22;32724;51.094;6.996;2022-07-23T07:59:49;20.90;99.90
46976;DHT22;32724;51.094;6.996;2022-07-23T08:02:15;21.10;99.90
46976;DHT22;32724;51.094;6.996;2022-07-23T08:04:40;21.30;99.90
46976;DHT22;32724;51.094;6.996;2022-07-23T08:07:06;21.10;99.90
46976;DHT22;32724;51.094;6.996;2022-07-23T08:09:31;20.50;99.90
46976;DHT22;32724;51.094;6.996;2022-07-23T08:11:57;20.30;99.90
46976;DHT22;32724;51.094;6.996;2022-07-23T08:14:22;20.20;99.90
46976;DHT22;32724;51.094;6.996;2022-07-23T08:16:48;20.30;99.90
46976;DHT22;32724;51.094;6.996;2022-07-23T08:19:13;20.60;99.90
46976;DHT22;32724;51.094;6.996;2022-07-23T08:21:39;20.70;99.90
46976;DHT22;32724;51.094;6.996;2022-07-23T08:24:04;20.50;99.90
46976;DHT22;32724;51.094;6.996;2022-07-23T08:26:30;20.70;99.90
46976;DHT22;32724;51.094;6.996;2022-07-23T08:28:55;20.40;99.90
46976;DHT22;32724;51.094;6.996;2022-07-23T08:31:21;20.60;99.90
46976;DHT22;32724;51.094;6.996;2022-07-23T08:33:46;20.70;99.90
46976;DHT22;32724;51.094;6.996;2022-07-23T08:36:12;20.90;99.90
46976;DHT22;32724;51.094;6.996;2022-07-23T08:38:37;21.10;99.90
46976;DHT22;32724;51.094;6.996;2022-07-23T08:41:03;21.20;99.90
46976;DHT22;32724;51.094;6.996;2022-07-23T08:43:30;21.20;99.90
46976;DHT22;32724;51.094;6.996;2022-07-23T08:45:56;21.40;99.90
46976;DHT22;32724;51.094;6.996;2022-07-23T08:48:23;21.80;99.90
46976;DHT22;32724;51.094;6.996;2022-07-23T08:50:50;22.00;99.90
46976;DHT22;32724;51.094;6.996;2022-07-23T08:53:16;22.20;99.90
46976;DHT22;32724;51.094;6.996;2022-07-23T08:55:49;22.20;99.90
46976;DHT22;32724;51.094;6.996;2022-07-23T08:58:17;22.20;99.90
46976;DHT22;32724;51.094;6.996;2022-07-23T09:00:42;22.20;99.90
46976;DHT22;32724;51.094;6.996;2022-07-23T09:03:13;22.30;99.90
46976;DHT22;32724;51.094;6.996;2022-07-23T09:05:39;22.30;99.90
46976;DHT22;32724;51.094;6.996;2022-07-23T09:08:12;22.50;99.90
46976;DHT22;32724;51.094;6.996;2022-07-23T09:10:45;22.70;99.90
46976;DHT22;32724;51.094;6.996;2022-07-23T09:13:28;22.70;99.90
46976;DHT22;32724;51.094;6.996;2022-07-23T09:15:54;23.00;99.90
46976;DHT22;32724;51.094;6.996;2022-07-23T09:18:27;22.90;99.90
46976;DHT22;32724;51.094;6.996;2022-07-23T09:21:04;23.00;99.90
46976;DHT22;32724;51.094;6.996;2022-07-23T09:23:36;23.00;99.90
46976;DHT22;32724;51.094;6.996;2022-07-23T09:26:02;23.10;99.90
46976;DHT22;32724;51.094;6.996;2022-07-23T09:28:27;23.20;99.90
46976;DHT22;32724;51.094;6.996;2022-07-23T09:30:53;23.30;99.90
46976;DHT22;32724;51.094;6.996;2022-07-23T09:33:18;23.20;99.90
46976;DHT22;32724;51.094;6.996;2022-07-23T09:35:46;23.30;99.90
46976;DHT22;32724;51.094;6.996;2022-07-23T09:38:13;23.30;99.90
46976;DHT22;32724;51.094;6.996;2022-07-23T09:40:38;23.50;99.90
46976;DHT22;32724;51.094;6.996;2022-07-23T09:43:04;23.70;99.90
46976;DHT22;32724;51.094;6.996;2022-07-23T09:45:29;23.50;99.90
46976;DHT22;32724;51.094;6.996;2022-07-23T09:48:10;23.40;99.90
46976;DHT22;32724;51.094;6.996;2022-07-23T09:50:36;23.30;99.90
46976;DHT22;32724;51.094;6.996;2022-07-23T09:53:02;23.30;99.90
46976;DHT22;32724;51.094;6.996;2022-07-23T09:55:31;23.60;99.90
46976;DHT22;32724;51.094;6.996;2022-07-23T09:58:02;23.70;99.90
46976;DHT22;32724;51.094;6.996;2022-07-23T10:00:27;23.80;99.90
46976;DHT22;32724;51.094;6.996;2022-07-23T10:02:53;24.00;99.90
46976;DHT22;32724;51.094;6.996;2022-07-23T10:05:20;24.00;99.90
46976;DHT22;32724;51.094;6.996;2022-07-23T10:07:46;23.70;99.90
46976;DHT22;32724;51.094;6.996;2022-07-23T10:10:11;23.80;99.90
46976;DHT22;32724;51.094;6.996;2022-07-23T10:12:38;23.70;99.90
46976;DHT22;32724;51.094;6.996;2022-07-23T10:15:16;23.70;99.90
46976;DHT22;32724;51.094;6.996;2022-07-23T10:17:41;23.50;99.90
46976;DHT22;32724;51.094;6.996;2022-07-23T10:20:07;23.60;99.90
46976;DHT22;32724;51.094;6.996;2022-07-23T10:22:33;23.80;99.90
46976;DHT22;32724;51.094;6.996;2022-07-23T10:30:19;23.40;99.90
46976;DHT22;32724;51.094;6.996;2022-07-23T10:35:42;23.70;99.90
46976;DHT22;32724;51.094;6.996;2022-07-23T10:38:25;23.70;99.90
46976;DHT22;32724;51.094;6.996;2022-07-23T10:43:21;24.20;99.90
46976;DHT22;32724;51.094;6.996;2022-07-23T10:45:46;24.30;99.90
46976;DHT22;32724;51.094;6.996;2022-07-23T10:48:25;24.50;99.90
46976;DHT22;32724;51.094;6.996;2022-07-23T10:56:17;24.30;99.90
46976;DHT22;32724;51.094;6.996;2022-07-23T10:58:46;24.20;99.90
46976;DHT22;32724;51.094;6.996;2022-07-23T11:01:31;24.40;99.90
46976;DHT22;32724;51.094;6.996;2022-07-23T11:03:56;24.70;99.90
46976;DHT22;32724;51.094;6.996;2022-07-23T11:06:23;24.90;99.90
46976;DHT22;32724;51.094;6.996;2022-07-23T11:09:03;24.90;99.90
46976;DHT22;32724;51.094;6.996;2022-07-23T11:11:34;24.90;99.90
46976;DHT22;32724;51.094;6.996;2022-07-23T11:14:00;24.90;99.90
46976;DHT22;32724;51.094;6.996;2022-07-23T11:16:25;24.90;99.90
46976;DHT22;32724;51.094;6.996;2022-07-23T11:18:55;24.90;99.90
46976;DHT22;32724;51.094;6.996;2022-07-23T11:24:08;25.20;99.90
46976;DHT22;32724;51.094;6.996;2022-07-23T11:31:53;25.50;99.90
46976;DHT22;32724;51.094;6.996;2022-07-23T11:34:36;25.60;99.90
46976;DHT22;32724;51.094;6.996;2022-07-23T11:37:05;25.80;99.90
46976;DHT22;32724;51.094;6.996;2022-07-23T11:39:31;25.80;99.90
46976;DHT22;32724;51.094;6.996;2022-07-23T11:41:57;25.60;99.90
46976;DHT22;32724;51.094;6.996;2022-07-23T11:46:58;25.70;99.90
46976;DHT22;32724;51.094;6.996;2022-07-23T11:49:24;25.50;99.90
46976;DHT22;32724;51.094;6.996;2022-07-23T11:54:28;25.20;99.90
46976;DHT22;32724;51.094;6.996;2022-07-23T11:56:57;25.10;99.90
46976;DHT22;32724;51.094;6.996;2022-07-23T11:59:24;25.10;99.90
46976;DHT22;32724;51.094;6.996;2022-07-23T12:01:59;25.30;99.90
46976;DHT22;32724;51.094;6.996;2022-07-23T12:04:28;25.50;99.90
46976;DHT22;32724;51.094;6.996;2022-07-23T12:07:01;25.90;99.90
46976;DHT22;32724;51.094;6.996;2022-07-23T12:09:27;26.10;99.90
46976;DHT22;32724;51.094;6.996;2022-07-23T12:11:56;26.20;99.90
46976;DHT22;32724;51.094;6.996;2022-07-23T12:14:21;26.10;99.90
46976;DHT22;32724;51.094;6.996;2022-07-23T12:16:47;26.10;99.90
46976;DHT22;32724;51.094;6.996;2022-07-23T12:19:12;26.10;99.90
46976;DHT22;32724;51.094;6.996;2022-07-23T12:21:38;25.80;99.90
46976;DHT22;32724;51.094;6.996;2022-07-23T12:24:07;25.60;99.90
46976;DHT22;32724;51.094;6.996;2022-07-23T12:26:32;25.40;99.90
46976;DHT22;32724;51.094;6.996;2022-07-23T12:28:58;25.30;99.90
46976;DHT22;32724;51.094;6.996;2022-07-23T12:31:27;25.40;99.90
46976;DHT22;32724;51.094;6.996;2022-07-23T12:33:52;25.60;99.90
46976;DHT22;32724;51.094;6.996;2022-07-23T12:36:18;25.60;99.90
46976;DHT22;32724;51.094;6.996;2022-07-23T12:38:46;25.80;99.90
46976;DHT22;32724;51.094;6.996;2022-07-23T12:41:12;26.10;99.90
46976;DHT22;32724;51.094;6.996;2022-07-23T12:43:41;26.30;99.90
46976;DHT22;32724;51.094;6.996;2022-07-23T12:51:17;26.70;99.90
46976;DHT22;32724;51.094;6.996;2022-07-23T12:53:44;26.50;99.90
46976;DHT22;32724;51.094;6.996;2022-07-23T12:56:14;26.40;99.90
46976;DHT22;32724;51.094;6.996;2022-07-23T13:01:05;26.20;99.90
46976;DHT22;32724;51.094;6.996;2022-07-23T13:03:36;26.30;99.90
46976;DHT22;32724;51.094;6.996;2022-07-23T13:06:02;26.40;99.90
46976;DHT22;32724;51.094;6.996;2022-07-23T13:08:29;26.50;99.90
46976;DHT22;32724;51.094;6.996;2022-07-23T13:10:55;26.10;99.90
46976;DHT22;32724;51.094;6.996;2022-07-23T13:13:23;26.00;99.90
46976;DHT22;32724;51.094;6.996;2022-07-23T13:15:48;26.00;99.90
46976;DHT22;32724;51.094;6.996;2022-07-23T13:18:14;25.90;99.90
46976;DHT22;32724;51.094;6.996;2022-07-23T13:20:39;25.70;99.90
46976;DHT22;32724;51.094;6.996;2022-07-23T13:23:08;25.40;99.90
46976;DHT22;32724;51.094;6.996;2022-07-23T13:25:33;25.20;99.90
46976;DHT22;32724;51.094;6.996;2022-07-23T13:27:59;25.10;99.90
46976;DHT22;32724;51.094;6.996;2022-07-23T13:30:25;24.90;99.90
46976;DHT22;32724;51.094;6.996;2022-07-23T13:32:50;24.70;99.90
46976;DHT22;32724;51.094;6.996;2022-07-23T13:35:16;24.70;99.90
46976;DHT22;32724;51.094;6.996;2022-07-23T13:37:41;24.90;99.90
46976;DHT22;32724;51.094;6.996;2022-07-23T13:40:07;25.10;99.90
46976;DHT22;32724;51.094;6.996;2022-07-23T13:42:33;25.30;99.90
46976;DHT22;32724;51.094;6.996;2022-07-23T13:44:58;25.40;99.90
46976;DHT22;32724;51.094;6.996;2022-07-23T13:47:24;25.50;99.90
46976;DHT22;32724;51.094;6.996;2022-07-23T13:49:50;25.60;99.90
46976;DHT22;32724;51.094;6.996;2022-07-23T13:52:15;25.80;99.90
46976;DHT22;32724;51.094;6.996;2022-07-23T13:54:41;26.00;99.90
46976;DHT22;32724;51.094;6.996;2022-07-23T13:57:06;26.00;99.90
46976;DHT22;32724;51.094;6.996;2022-07-23T13:59:34;26.10;99.90
46976;DHT22;32724;51.094;6.996;2022-07-23T14:02:00;26.10;99.90
46976;DHT22;32724;51.094;6.996;2022-07-23T14:04:25;26.20;99.90
46976;DHT22;32724;51.094;6.996;2022-07-23T14:06:51;26.30;99.90
46976;DHT22;32724;51.094;6.996;2022-07-23T14:09:16;26.30;99.90
46976;DHT22;32724;51.094;6.996;2022-07-23T14:11:42;26.20;99.90
46976;DHT22;32724;51.094;6.996;2022-07-23T14:14:07;26.10;99.90
46976;DHT22;32724;51.094;6.996;2022-07-23T14:16:33;25.80;99.90
46976;DHT22;32724;51.094;6.996;2022-07-23T14:18:58;25.80;99.90
46976;DHT22;32724;51.094;6.996;2022-07-23T14:21:24;25.80;99.90
46976;DHT22;32724;51.094;6.996;2022-07-23T14:23:49;25.80;99.90
46976;DHT22;32724;51.094;6.996;2022-07-23T14:26:15;25.80;99.90
46976;DHT22;32724;51.094;6.996;2022-07-23T14:28:40;25.90;99.90
46976;DHT22;32724;51.094;6.996;2022-07-23T14:31:06;25.90;99.90
46976;DHT22;32724;51.094;6.996;2022-07-23T14:33:31;25.80;99.90
46976;DHT22;32724;51.094;6.996;2022-07-23T14:35:57;25.80;99.90
46976;DHT22;32724;51.094;6.996;2022-07-23T14:38:24;25.60;99.90
46976;DHT22;32724;51.094;6.996;2022-07-23T14:40:49;25.40;99.90
46976;DHT22;32724;51.094;6.996;2022-07-23T14:43:15;25.50;99.90
46976;DHT22;32724;51.094;6.996;2022-07-23T14:45:42;25.70;99.90
46976;DHT22;32724;51.094;6.996;2022-07-23T14:48:08;25.80;99.90
46976;DHT22;32724;51.094;6.996;2022-07-23T14:50:33;25.80;99.90
46976;DHT22;32724;51.094;6.996;2022-07-23T14:52:59;25.80;99.90
46976;DHT22;32724;51.094;6.996;2022-07-23T14:55:24;25.80;99.90
46976;DHT22;32724;51.094;6.996;2022-07-23T14:57:50;25.70;99.90
46976;DHT22;32724;51.094;6.996;2022-07-23T15:00:15;25.60;99.90
46976;DHT22;32724;51.094;6.996;2022-07-23T15:02:41;25.40;99.90
46976;DHT22;32724;51.094;6.996;2022-07-23T15:05:06;25.30;99.90
46976;DHT22;32724;51.094;6.996;2022-07-23T15:07:32;25.40;99.90
46976;DHT22;32724;51.094;6.996;2022-07-23T15:09:58;25.60;99.90
46976;DHT22;32724;51.094;6.996;2022-07-23T15:12:23;25.70;99.90
46976;DHT22;32724;51.094;6.996;2022-07-23T15:14:49;25.80;99.90
46976;DHT22;32724;51.094;6.996;2022-07-23T15:17:14;25.90;99.90
46976;DHT22;32724;51.094;6.996;2022-07-23T15:19:40;26.00;99.90
46976;DHT22;32724;51.094;6.996;2022-07-23T15:22:05;26.20;99.90
46976;DHT22;32724;51.094;6.996;2022-07-23T15:24:31;26.20;99.90
46976;DHT22;32724;51.094;6.996;2022-07-23T15:26:57;26.20;99.90
46976;DHT22;32724;51.094;6.996;2022-07-23T15:29:22;26.10;99.90
46976;DHT22;32724;51.094;6.996;2022-07-23T15:31:48;26.10;99.90
46976;DHT22;32724;51.094;6.996;2022-07-23T15:34:14;26.10;99.90
46976;DHT22;32724;51.094;6.996;2022-07-23T15:36:39;26.10;99.90
46976;DHT22;32724;51.094;6.996;2022-07-23T15:39:05;26.10;99.90
46976;DHT22;32724;51.094;6.996;2022-07-23T15:41:30;26.10;99.90
46976;DHT22;32724;51.094;6.996;2022-07-23T15:43:56;26.00;99.90
46976;DHT22;32724;51.094;6.996;2022-07-23T15:46:22;26.10;99.90
46976;DHT22;32724;51.094;6.996;2022-07-23T15:48:47;26.10;99.90
46976;DHT22;32724;51.094;6.996;2022-07-23T15:51:13;26.10;99.90
46976;DHT22;32724;51.094;6.996;2022-07-23T15:53:39;26.10;99.90
46976;DHT22;32724;51.094;6.996;2022-07-23T15:56:05;26.00;99.80
46976;DHT22;32724;51.094;6.996;2022-07-23T15:58:31;26.00;99.90
46976;DHT22;32724;51.094;6.996;2022-07-23T16:00:57;26.00;99.80
46976;DHT22;32724;51.094;6.996;2022-07-23T16:03:23;26.10;99.50